createdAt,value
2023-05-07T00:00:12.359Z,6.93
2023-05-07T00:02:40.017Z,8.00
2023-05-07T00:05:08.607Z,4.73
2023-05-07T00:07:36.369Z,6.87
2023-05-07T00:10:04.659Z,5.47
2023-05-07T00:12:34.628Z,4.90
2023-05-07T00:15:05.953Z,8.00
2023-05-07T00:17:34.804Z,5.80
2023-05-07T00:20:01.918Z,7.80
2023-05-07T00:22:31.213Z,5.80
2023-05-07T00:24:58.250Z,5.03
2023-05-07T00:27:26.115Z,4.30
2023-05-07T00:29:53.223Z,5.53
2023-05-07T00:32:20.652Z,4.07
2023-05-07T00:34:47.710Z,5.17
2023-05-07T00:37:14.831Z,6.80
2023-05-07T00:39:41.844Z,6.93
2023-05-07T00:42:09.276Z,8.80
2023-05-07T00:44:36.375Z,8.47
2023-05-07T00:47:06.040Z,9.17
2023-05-07T00:49:41.132Z,6.83
2023-05-07T00:52:09.854Z,9.53
2023-05-07T00:54:37.337Z,6.50
2023-05-07T00:57:05.259Z,7.57
2023-05-07T00:59:34.030Z,6.50
2023-05-07T01:02:01.325Z,4.70
2023-05-07T01:04:28.634Z,4.23
2023-05-07T01:06:58.771Z,8.03
2023-05-07T01:09:27.397Z,5.67
2023-05-07T01:11:55.810Z,7.97
2023-05-07T01:14:23.378Z,10.93
2023-05-07T01:16:52.225Z,4.87
2023-05-07T01:19:22.518Z,10.87
2023-05-07T01:21:52.181Z,7.10
2023-05-07T01:24:21.617Z,4.67
2023-05-07T01:26:48.726Z,5.37
2023-05-07T01:29:17.674Z,10.37
2023-05-07T01:31:46.811Z,5.67
2023-05-07T01:34:17.837Z,10.00
2023-05-07T01:36:45.872Z,8.50
2023-05-07T01:39:13.900Z,7.07
2023-05-07T01:41:41.038Z,10.90
2023-05-07T01:44:09.543Z,7.20
2023-05-07T01:46:37.431Z,9.73
2023-05-07T01:49:05.360Z,8.87
2023-05-07T01:51:33.017Z,9.37
2023-05-07T01:54:00.111Z,11.53
2023-05-07T01:56:27.567Z,7.57
2023-05-07T01:58:55.654Z,8.23
2023-05-07T02:01:22.863Z,7.13
2023-05-07T02:03:50.892Z,12.97
2023-05-07T02:06:23.619Z,9.67
2023-05-07T02:08:52.832Z,8.43
2023-05-07T02:11:20.075Z,8.17
2023-05-07T02:13:47.468Z,13.87
2023-05-07T02:16:15.515Z,11.60
2023-05-07T02:18:42.721Z,6.63
2023-05-07T02:21:09.805Z,6.23
2023-05-07T02:23:37.164Z,9.47
2023-05-07T02:26:05.465Z,6.73
2023-05-07T02:28:33.021Z,10.17
2023-05-07T02:31:05.624Z,8.23
2023-05-07T02:33:33.442Z,10.93
2023-05-07T02:36:10.824Z,9.87
2023-05-07T02:38:51.177Z,7.63
2023-05-07T02:41:18.258Z,12.67
2023-05-07T02:43:45.343Z,8.27
2023-05-07T02:46:13.101Z,13.60
2023-05-07T02:48:44.308Z,10.13
2023-05-07T02:51:12.134Z,7.40
2023-05-07T02:53:41.547Z,7.97
2023-05-07T02:56:08.708Z,10.30
2023-05-07T02:58:35.877Z,9.30
2023-05-07T03:01:04.412Z,8.30
2023-05-07T03:03:36.917Z,9.33
2023-05-07T03:06:04.347Z,8.30
2023-05-07T03:08:31.554Z,7.10
2023-05-07T03:10:58.782Z,10.67
2023-05-07T03:13:26.457Z,7.70
2023-05-07T03:15:53.687Z,6.97
2023-05-07T03:18:20.971Z,12.23
2023-05-07T03:20:49.831Z,12.80
2023-05-07T03:23:18.449Z,12.47
2023-05-07T03:25:45.660Z,8.97
2023-05-07T03:28:13.081Z,11.67
2023-05-07T03:30:49.323Z,11.87
2023-05-07T03:33:16.765Z,13.40
2023-05-07T03:35:43.948Z,8.60
2023-05-07T03:38:12.690Z,15.50
2023-05-07T03:40:39.759Z,11.57
2023-05-07T03:43:06.962Z,9.90
2023-05-07T03:45:37.338Z,9.37
2023-05-07T03:48:11.952Z,12.80
2023-05-07T03:50:39.397Z,12.03
2023-05-07T03:53:07.397Z,10.50
2023-05-07T03:55:39.044Z,9.90
2023-05-07T03:58:06.277Z,11.40
2023-05-07T04:00:38.224Z,12.63
2023-05-07T04:03:14.328Z,10.40
2023-05-07T04:05:42.014Z,13.13
2023-05-07T04:08:09.121Z,12.33
2023-05-07T04:10:40.416Z,11.63
2023-05-07T04:13:12.007Z,10.30
2023-05-07T04:15:39.138Z,14.43
2023-05-07T04:18:10.102Z,8.90
2023-05-07T04:20:38.696Z,10.90
2023-05-07T04:23:09.942Z,9.90
2023-05-07T04:25:37.537Z,11.10
2023-05-07T04:28:19.860Z,11.07
2023-05-07T04:30:47.575Z,8.47
2023-05-07T04:33:17.942Z,9.17
2023-05-07T04:35:45.973Z,10.87
2023-05-07T04:38:13.151Z,8.77
2023-05-07T04:40:40.538Z,12.33
2023-05-07T04:43:10.215Z,9.07
2023-05-07T04:45:44.997Z,8.50
2023-05-07T04:48:12.151Z,10.93
2023-05-07T04:50:41.873Z,9.67
2023-05-07T04:53:09.615Z,7.90
2023-05-07T04:55:36.991Z,10.77
2023-05-07T04:58:05.974Z,7.10
2023-05-07T05:00:35.350Z,7.90
2023-05-07T05:03:04.708Z,10.40
2023-05-07T05:05:32.224Z,9.63
2023-05-07T05:08:00.198Z,11.63
2023-05-07T05:10:27.552Z,9.90
2023-05-07T05:12:55.955Z,11.33
2023-05-07T05:15:25.733Z,10.20
2023-05-07T05:17:52.967Z,10.63
2023-05-07T05:20:20.363Z,9.37
2023-05-07T05:22:48.931Z,11.97
2023-05-07T05:25:16.360Z,15.10
2023-05-07T05:27:43.497Z,15.93
2023-05-07T05:30:11.997Z,10.10
2023-05-07T05:32:39.822Z,11.97
2023-05-07T05:35:07.984Z,11.30
2023-05-07T05:37:36.579Z,9.20
2023-05-07T05:40:07.038Z,8.10
2023-05-07T05:42:34.571Z,8.07
2023-05-07T05:45:02.349Z,9.83
2023-05-07T05:47:31.248Z,7.77
2023-05-07T05:49:58.392Z,15.70
2023-05-07T05:52:26.383Z,11.50
2023-05-07T05:54:55.237Z,10.33
2023-05-07T05:57:22.652Z,9.77
2023-05-07T05:59:50.082Z,12.23
2023-05-07T06:02:17.396Z,14.47
2023-05-07T06:04:44.624Z,12.60
2023-05-07T06:07:14.650Z,13.90
2023-05-07T06:09:42.229Z,13.73
2023-05-07T06:12:09.424Z,12.17
2023-05-07T06:14:37.736Z,17.27
2023-05-07T06:17:05.089Z,12.63
2023-05-07T06:19:32.708Z,14.73
2023-05-07T06:22:02.476Z,12.80
2023-05-07T06:24:30.986Z,16.30
2023-05-07T06:26:59.611Z,12.33
2023-05-07T06:29:27.987Z,11.77
2023-05-07T06:31:55.257Z,10.63
2023-05-07T06:34:23.550Z,11.23
2023-05-07T06:36:51.784Z,13.67
2023-05-07T06:39:31.860Z,11.53
2023-05-07T06:41:59.136Z,18.30
2023-05-07T06:44:31.920Z,16.67
2023-05-07T06:47:19.268Z,18.30
2023-05-07T06:49:51.158Z,21.00
2023-05-07T06:52:21.182Z,18.33
2023-05-07T06:54:50.647Z,17.57
2023-05-07T06:57:20.470Z,25.17
2023-05-07T06:59:47.602Z,19.43
2023-05-07T07:02:16.919Z,17.63
2023-05-07T07:04:46.215Z,20.50
2023-05-07T07:07:14.576Z,24.07
2023-05-07T07:09:44.445Z,20.90
2023-05-07T07:12:11.850Z,19.53
2023-05-07T07:14:41.275Z,22.17
2023-05-07T07:17:08.425Z,16.80
2023-05-07T07:19:35.664Z,16.40
2023-05-07T07:22:04.498Z,16.27
2023-05-07T07:24:32.913Z,14.57
2023-05-07T07:27:04.019Z,16.83
2023-05-07T07:29:33.726Z,13.07
2023-05-07T07:32:00.999Z,14.30
2023-05-07T07:34:28.732Z,15.73
2023-05-07T07:36:56.357Z,13.60
2023-05-07T07:39:24.850Z,14.60
2023-05-07T07:41:54.913Z,12.67
2023-05-07T07:44:22.915Z,16.70
2023-05-07T07:46:54.345Z,12.37
2023-05-07T07:49:23.450Z,12.00
2023-05-07T07:51:50.792Z,13.60
2023-05-07T07:54:18.405Z,12.80
2023-05-07T07:56:45.869Z,11.50
2023-05-07T07:59:18.923Z,15.07
2023-05-07T08:01:49.403Z,9.60
2023-05-07T08:04:16.912Z,9.97
2023-05-07T08:06:45.221Z,10.37
2023-05-07T08:09:12.620Z,8.20
2023-05-07T08:11:41.944Z,12.37
2023-05-07T08:14:09.663Z,10.00
2023-05-07T08:16:37.292Z,9.97
2023-05-07T08:19:04.664Z,8.90
2023-05-07T08:21:34.593Z,11.10
2023-05-07T08:24:02.467Z,11.40
2023-05-07T08:26:30.105Z,5.47
2023-05-07T08:28:57.232Z,5.97
2023-05-07T08:31:25.212Z,8.43
2023-05-07T08:33:52.378Z,5.53
2023-05-07T08:36:20.436Z,7.70
2023-05-07T08:38:47.654Z,8.70
2023-05-07T08:41:15.206Z,6.43
2023-05-07T08:43:50.330Z,5.30
2023-05-07T08:46:20.597Z,12.10
2023-05-07T08:48:53.166Z,7.13
2023-05-07T08:51:22.244Z,11.33
2023-05-07T08:53:51.074Z,6.93
2023-05-07T08:56:24.547Z,8.00
2023-05-07T08:58:57.579Z,10.23
2023-05-07T09:01:26.240Z,5.37
2023-05-07T09:03:54.774Z,4.67
2023-05-07T09:06:23.761Z,5.73
2023-05-07T09:08:52.680Z,4.63
2023-05-07T09:11:24.672Z,8.60
2023-05-07T09:13:58.727Z,6.27
2023-05-07T09:16:27.690Z,4.07
2023-05-07T09:18:58.504Z,6.70
2023-05-07T09:21:27.112Z,6.30
2023-05-07T09:23:56.771Z,6.80
2023-05-07T09:26:34.183Z,8.13
2023-05-07T09:29:01.316Z,6.10
2023-05-07T09:31:29.003Z,5.30
2023-05-07T09:33:57.292Z,6.33
2023-05-07T09:36:28.496Z,8.03
2023-05-07T09:38:57.686Z,7.70
2023-05-07T09:41:25.140Z,3.43
2023-05-07T09:44:01.467Z,5.27
2023-05-07T09:46:39.410Z,5.30
2023-05-07T09:49:23.044Z,4.53
2023-05-07T09:51:54.052Z,6.30
2023-05-07T09:54:24.413Z,6.37
2023-05-07T09:56:56.623Z,3.87
2023-05-07T09:59:30.196Z,5.53
2023-05-07T10:02:02.780Z,6.00
2023-05-07T10:04:33.328Z,10.17
2023-05-07T10:07:01.937Z,9.13
2023-05-07T10:09:31.339Z,8.07
2023-05-07T10:11:59.756Z,6.13
2023-05-07T10:14:29.109Z,4.50
2023-05-07T10:16:57.351Z,6.77
2023-05-07T10:19:26.187Z,4.80
2023-05-07T10:22:04.103Z,5.03
2023-05-07T10:24:37.985Z,7.67
2023-05-07T10:27:13.590Z,5.80
2023-05-07T10:30:13.056Z,4.40
2023-05-07T10:32:56.437Z,5.53
2023-05-07T10:35:33.814Z,6.50
2023-05-07T10:38:05.121Z,6.67
2023-05-07T10:40:35.006Z,6.77
2023-05-07T10:43:10.670Z,6.60
2023-05-07T10:46:19.835Z,8.43
2023-05-07T10:49:24.595Z,5.90
2023-05-07T10:52:22.466Z,5.07
2023-05-07T10:55:26.704Z,4.50
2023-05-07T10:58:32.723Z,5.47
2023-05-07T11:01:59.954Z,4.60
2023-05-07T11:04:37.545Z,5.97
2023-05-07T11:07:28.980Z,5.47
2023-05-07T11:10:16.527Z,6.33
2023-05-07T11:12:55.291Z,6.80
2023-05-07T11:15:48.063Z,8.40
2023-05-07T11:18:51.233Z,4.63
2023-05-07T11:21:38.813Z,6.40
2023-05-07T11:24:29.336Z,7.67
2023-05-07T11:27:01.468Z,6.67
2023-05-07T11:29:31.875Z,7.10
2023-05-07T11:32:07.270Z,4.53
2023-05-07T11:34:41.567Z,9.93
2023-05-07T11:37:10.408Z,5.97
2023-05-07T11:39:50.813Z,5.43
2023-05-07T11:42:35.139Z,10.97
2023-05-07T11:45:02.879Z,4.70
2023-05-07T11:47:31.882Z,5.20
2023-05-07T11:50:07.406Z,5.90
2023-05-07T11:52:35.479Z,8.47
2023-05-07T11:55:04.714Z,7.33
2023-05-07T11:57:33.768Z,5.33
2023-05-07T12:00:03.235Z,4.47
2023-05-07T12:02:39.921Z,5.60
2023-05-07T12:05:07.654Z,5.93
2023-05-07T12:07:37.991Z,5.17
2023-05-07T12:10:08.659Z,13.40
2023-05-07T12:12:47.574Z,6.27
2023-05-07T12:15:18.369Z,3.30
2023-05-07T12:17:45.718Z,4.57
2023-05-07T12:20:13.611Z,4.30
2023-05-07T12:22:40.882Z,3.40
2023-05-07T12:25:09.030Z,3.07
2023-05-07T12:27:39.216Z,8.67
2023-05-07T12:30:07.381Z,3.50
2023-05-07T12:32:37.975Z,4.53
2023-05-07T12:35:07.752Z,5.27
2023-05-07T12:37:37.067Z,4.50
2023-05-07T12:40:12.226Z,5.03
2023-05-07T12:42:41.563Z,8.17
2023-05-07T12:45:13.288Z,5.80
2023-05-07T12:47:44.626Z,6.50
2023-05-07T12:50:12.668Z,5.67
2023-05-07T12:52:39.933Z,8.17
2023-05-07T12:55:07.916Z,6.80
2023-05-07T12:57:45.056Z,4.97
2023-05-07T13:00:12.917Z,4.33
2023-05-07T13:02:41.510Z,4.67
2023-05-07T13:05:09.742Z,5.10
2023-05-07T13:07:38.150Z,2.77
2023-05-07T13:10:06.424Z,3.73
2023-05-07T13:12:33.859Z,3.93
2023-05-07T13:15:00.972Z,3.10
2023-05-07T13:17:28.173Z,2.97
2023-05-07T13:19:55.386Z,4.87
2023-05-07T13:22:22.480Z,4.50
2023-05-07T13:24:49.550Z,5.77
2023-05-07T13:27:16.661Z,3.40
2023-05-07T13:29:43.835Z,3.33
2023-05-07T13:32:11.008Z,2.93
2023-05-07T13:34:38.259Z,4.60
2023-05-07T13:37:05.302Z,4.27
2023-05-07T13:39:32.735Z,4.37
2023-05-07T13:41:59.805Z,8.13
2023-05-07T13:44:27.672Z,4.63
2023-05-07T13:46:54.916Z,5.03
2023-05-07T13:49:22.030Z,7.47
2023-05-07T13:51:49.152Z,4.73
2023-05-07T13:54:16.991Z,7.23
2023-05-07T13:56:44.139Z,7.70
2023-05-07T13:59:11.417Z,5.30
2023-05-07T14:01:38.752Z,5.27
2023-05-07T14:04:06.065Z,3.47
2023-05-07T14:06:33.120Z,3.97
2023-05-07T14:09:01.235Z,2.83
2023-05-07T14:11:28.356Z,3.73
2023-05-07T14:13:55.570Z,4.37
2023-05-07T14:16:22.708Z,4.07
2023-05-07T14:18:50.158Z,2.97
2023-05-07T14:21:17.200Z,4.17
2023-05-07T14:23:44.525Z,2.77
2023-05-07T14:26:11.651Z,3.07
2023-05-07T14:28:40.664Z,3.77
2023-05-07T14:31:07.936Z,7.13
2023-05-07T14:33:35.422Z,4.17
2023-05-07T14:36:02.507Z,3.87
2023-05-07T14:38:29.825Z,3.87
2023-05-07T14:40:57.414Z,12.37
2023-05-07T14:43:24.650Z,2.90
2023-05-07T14:45:51.849Z,2.30
2023-05-07T14:48:21.208Z,4.30
2023-05-07T14:50:49.392Z,3.40
2023-05-07T14:53:17.009Z,2.87
2023-05-07T14:55:44.355Z,2.53
2023-05-07T14:58:12.349Z,6.03
2023-05-07T15:00:39.722Z,3.43
2023-05-07T15:03:11.749Z,4.80
2023-05-07T15:05:42.836Z,2.70
2023-05-07T15:08:10.227Z,3.70
2023-05-07T15:10:42.225Z,4.07
2023-05-07T15:13:14.546Z,3.93
2023-05-07T15:15:45.253Z,3.03
2023-05-07T15:18:12.767Z,8.60
2023-05-07T15:20:40.115Z,6.23
2023-05-07T15:23:10.976Z,5.83
2023-05-07T15:25:39.205Z,2.67
2023-05-07T15:28:06.577Z,3.70
2023-05-07T15:30:34.374Z,3.37
2023-05-07T15:33:02.834Z,5.70
2023-05-07T15:35:30.256Z,4.03
2023-05-07T15:37:57.497Z,2.70
2023-05-07T15:40:24.716Z,3.33
2023-05-07T15:42:57.080Z,2.80
2023-05-07T15:45:25.285Z,4.40
2023-05-07T15:47:52.442Z,4.13
2023-05-07T15:50:19.809Z,6.23
2023-05-07T15:52:47.592Z,4.10
2023-05-07T15:55:15.231Z,3.50
2023-05-07T15:57:42.322Z,3.13
2023-05-07T16:00:12.534Z,7.17
2023-05-07T16:02:40.379Z,4.60
2023-05-07T16:05:11.263Z,8.67
2023-05-07T16:07:38.777Z,3.37
2023-05-07T16:10:07.899Z,5.90
2023-05-07T16:12:35.379Z,5.43
2023-05-07T16:15:02.637Z,3.67
2023-05-07T16:17:29.744Z,3.70
2023-05-07T16:19:59.212Z,3.90
2023-05-07T16:22:26.993Z,3.90
2023-05-07T16:24:54.171Z,8.30
2023-05-07T16:27:21.450Z,4.53
2023-05-07T16:29:48.631Z,6.77
2023-05-07T16:32:15.894Z,4.70
2023-05-07T16:34:43.216Z,4.03
2023-05-07T16:37:10.872Z,3.67
2023-05-07T16:39:38.755Z,3.73
2023-05-07T16:42:06.050Z,3.77
2023-05-07T16:44:33.266Z,3.63
2023-05-07T16:47:00.375Z,6.47
2023-05-07T16:49:27.467Z,3.23
2023-05-07T16:51:54.676Z,7.73
2023-05-07T16:54:21.704Z,5.50
2023-05-07T16:56:49.041Z,3.40
2023-05-07T16:59:16.292Z,3.63
2023-05-07T17:01:43.649Z,6.20
2023-05-07T17:04:10.820Z,10.43
2023-05-07T17:06:37.912Z,7.03
2023-05-07T17:09:04.973Z,6.33
2023-05-07T17:11:34.098Z,6.73
2023-05-07T17:14:02.518Z,7.63
2023-05-07T17:16:31.325Z,4.13
2023-05-07T17:18:58.376Z,5.47
2023-05-07T17:21:25.777Z,8.60
2023-05-07T17:23:52.956Z,5.10
2023-05-07T17:26:20.063Z,5.13
2023-05-07T17:28:47.168Z,4.87
2023-05-07T17:31:14.268Z,4.50
2023-05-07T17:33:41.493Z,6.70
2023-05-07T17:36:08.845Z,4.03
2023-05-07T17:38:36.003Z,5.93
2023-05-07T17:41:03.222Z,7.33
2023-05-07T17:43:30.348Z,4.67
2023-05-07T17:45:57.694Z,4.23
2023-05-07T17:48:25.259Z,4.40
2023-05-07T17:50:52.514Z,8.70
2023-05-07T17:53:19.567Z,4.57
2023-05-07T17:55:47.210Z,5.60
2023-05-07T17:58:14.276Z,6.90
2023-05-07T18:00:41.439Z,8.67
2023-05-07T18:03:08.692Z,5.70
2023-05-07T18:05:39.858Z,9.07
2023-05-07T18:08:08.154Z,5.77
2023-05-07T18:10:35.850Z,6.40
2023-05-07T18:13:03.088Z,6.90
2023-05-07T18:15:30.190Z,7.97
2023-05-07T18:17:57.284Z,5.17
2023-05-07T18:20:24.452Z,4.10
2023-05-07T18:22:51.542Z,7.63
2023-05-07T18:25:18.795Z,5.60
2023-05-07T18:27:45.891Z,5.90
2023-05-07T18:30:13.863Z,7.43
2023-05-07T18:32:41.229Z,6.87
2023-05-07T18:35:08.972Z,5.87
2023-05-07T18:37:36.058Z,4.83
2023-05-07T18:40:04.548Z,5.07
2023-05-07T18:42:34.065Z,11.10
2023-05-07T18:45:03.743Z,5.30
2023-05-07T18:47:30.976Z,10.07
2023-05-07T18:49:58.366Z,7.07
2023-05-07T18:52:26.233Z,5.53
2023-05-07T18:54:53.329Z,6.10
2023-05-07T18:57:20.495Z,4.67
2023-05-07T18:59:47.845Z,4.07
2023-05-07T19:02:16.732Z,7.03
2023-05-07T19:04:44.231Z,4.13
2023-05-07T19:07:11.535Z,6.47
2023-05-07T19:09:38.642Z,4.20
2023-05-07T19:12:06.682Z,3.30
2023-05-07T19:14:33.796Z,6.30
2023-05-07T19:17:01.495Z,4.57
2023-05-07T19:19:29.038Z,4.90
2023-05-07T19:21:56.155Z,7.27
2023-05-07T19:24:23.429Z,7.90
2023-05-07T19:26:50.582Z,5.17
2023-05-07T19:29:18.624Z,6.83
2023-05-07T19:31:46.135Z,7.63
2023-05-07T19:34:14.278Z,12.73
2023-05-07T19:36:41.686Z,12.53
2023-05-07T19:39:08.919Z,12.33
2023-05-07T19:41:36.101Z,10.53
2023-05-07T19:44:03.331Z,10.67
2023-05-07T19:46:30.606Z,11.70
2023-05-07T19:48:57.877Z,11.70
2023-05-07T19:51:24.965Z,9.57
2023-05-07T19:53:52.053Z,10.20
2023-05-07T19:56:19.145Z,9.47
2023-05-07T19:58:46.240Z,12.77
2023-05-07T20:01:13.336Z,8.80
2023-05-07T20:03:41.808Z,12.13
2023-05-07T20:06:09.084Z,9.60
2023-05-07T20:08:36.418Z,8.53
2023-05-07T20:11:04.282Z,5.47
2023-05-07T20:13:31.456Z,7.40
2023-05-07T20:15:59.630Z,3.33
2023-05-07T20:18:28.233Z,6.03
2023-05-07T20:20:56.074Z,7.30
2023-05-07T20:23:23.735Z,10.53
2023-05-07T20:25:50.908Z,7.03
2023-05-07T20:28:18.060Z,9.50
2023-05-07T20:30:45.150Z,9.93
2023-05-07T20:33:13.240Z,12.17
2023-05-07T20:35:40.747Z,10.13
2023-05-07T20:38:08.111Z,9.30
2023-05-07T20:40:37.941Z,9.67
2023-05-07T20:43:08.163Z,11.90
2023-05-07T20:45:35.273Z,8.13
2023-05-07T20:48:02.743Z,9.60
2023-05-07T20:50:30.072Z,7.07
2023-05-07T20:52:57.150Z,7.17
2023-05-07T20:55:24.275Z,10.57
2023-05-07T20:57:51.436Z,5.73
2023-05-07T21:00:18.982Z,6.77
2023-05-07T21:02:46.166Z,8.80
2023-05-07T21:05:13.252Z,8.87
2023-05-07T21:07:40.374Z,5.00
2023-05-07T21:10:08.167Z,6.27
2023-05-07T21:12:35.237Z,3.70
2023-05-07T21:15:02.300Z,2.93
2023-05-07T21:17:31.859Z,3.97
2023-05-07T21:19:58.978Z,5.60
2023-05-07T21:22:26.125Z,3.37
2023-05-07T21:24:53.207Z,5.70
2023-05-07T21:27:20.468Z,3.83
2023-05-07T21:29:47.564Z,5.37
2023-05-07T21:32:14.716Z,7.07
2023-05-07T21:34:41.804Z,5.50
2023-05-07T21:37:09.226Z,3.33
2023-05-07T21:39:36.291Z,4.13
2023-05-07T21:42:03.539Z,2.80
2023-05-07T21:44:31.872Z,2.97
2023-05-07T21:46:59.036Z,3.90
2023-05-07T21:49:26.071Z,3.30
2023-05-07T21:51:53.320Z,13.17
2023-05-07T21:54:20.427Z,6.87
2023-05-07T21:56:49.888Z,5.30
2023-05-07T21:59:17.181Z,4.87
2023-05-07T22:01:44.782Z,8.53
2023-05-07T22:04:11.912Z,12.17
2023-05-07T22:06:39.057Z,6.00
2023-05-07T22:09:06.408Z,6.73
2023-05-07T22:11:33.470Z,12.17
2023-05-07T22:14:00.812Z,5.70
2023-05-07T22:16:27.945Z,6.23
2023-05-07T22:18:55.133Z,4.07
2023-05-07T22:21:22.347Z,4.13
2023-05-07T22:23:49.530Z,8.60
2023-05-07T22:26:16.972Z,4.77
2023-05-07T22:28:44.192Z,13.00
2023-05-07T22:31:11.583Z,13.13
2023-05-07T22:33:38.690Z,6.33
2023-05-07T22:36:07.779Z,6.90
2023-05-07T22:38:34.951Z,5.33
2023-05-07T22:41:01.984Z,6.97
2023-05-07T22:43:29.062Z,7.17
2023-05-07T22:46:01.140Z,6.80
2023-05-07T22:48:29.142Z,9.53
2023-05-07T22:50:56.725Z,5.57
2023-05-07T22:53:23.931Z,6.53
2023-05-07T22:55:51.022Z,4.70
2023-05-07T22:58:18.134Z,8.03
2023-05-07T23:00:45.312Z,5.57
2023-05-07T23:03:12.869Z,4.47
2023-05-07T23:05:40.217Z,7.17
2023-05-07T23:08:07.418Z,6.73
2023-05-07T23:10:35.122Z,7.17
2023-05-07T23:13:02.288Z,7.73
2023-05-07T23:15:29.642Z,5.57
2023-05-07T23:17:56.951Z,4.80
2023-05-07T23:20:24.023Z,5.50
2023-05-07T23:22:51.144Z,4.93
2023-05-07T23:25:18.455Z,5.27
2023-05-07T23:27:45.579Z,4.93
2023-05-07T23:30:13.544Z,5.53
2023-05-07T23:32:40.992Z,5.43
2023-05-07T23:35:08.970Z,6.63
2023-05-07T23:37:36.112Z,7.33
2023-05-07T23:40:03.587Z,7.57
2023-05-07T23:42:30.832Z,4.50
2023-05-07T23:44:58.073Z,7.07
2023-05-07T23:47:25.715Z,5.33
2023-05-07T23:49:52.781Z,4.13
2023-05-07T23:52:19.962Z,5.00
2023-05-07T23:54:47.035Z,3.63
2023-05-07T23:57:14.621Z,6.47
2023-05-07T23:59:41.704Z,4.57
